sensor_id;sensor_type;location;lat;lon;timestamp;P1;durP1;ratioP1;P2;durP2;ratioP2
21507;SDS011;10915;54.352;9.074;2022-09-25T00:00:46;8.67;;;3.60;;
21507;SDS011;10915;54.352;9.074;2022-09-25T00:03:14;10.10;;;3.70;;
21507;SDS011;10915;54.352;9.074;2022-09-25T00:05:41;10.27;;;3.50;;
21507;SDS011;10915;54.352;9.074;2022-09-25T00:08:08;7.03;;;3.67;;
21507;SDS011;10915;54.352;9.074;2022-09-25T00:10:38;12.00;;;3.80;;
21507;SDS011;10915;54.352;9.074;2022-09-25T00:13:09;11.13;;;3.63;;
21507;SDS011;10915;54.352;9.074;2022-09-25T00:15:35;11.57;;;4.13;;
21507;SDS011;10915;54.352;9.074;2022-09-25T00:18:01;13.80;;;4.17;;
21507;SDS011;10915;54.352;9.074;2022-09-25T00:20:27;8.77;;;4.03;;
21507;SDS011;10915;54.352;9.074;2022-09-25T00:22:53;13.43;;;4.37;;
21507;SDS011;10915;54.352;9.074;2022-09-25T00:25:19;12.23;;;4.10;;
21507;SDS011;10915;54.352;9.074;2022-09-25T00:27:45;11.37;;;4.33;;
21507;SDS011;10915;54.352;9.074;2022-09-25T00:30:12;10.83;;;5.17;;
21507;SDS011;10915;54.352;9.074;2022-09-25T00:32:38;10.67;;;5.10;;
21507;SDS011;10915;54.352;9.074;2022-09-25T00:35:04;11.00;;;4.77;;
21507;SDS011;10915;54.352;9.074;2022-09-25T00:37:34;12.27;;;4.33;;
21507;SDS011;10915;54.352;9.074;2022-09-25T00:40:00;16.17;;;5.10;;
21507;SDS011;10915;54.352;9.074;2022-09-25T00:42:27;9.00;;;4.77;;
21507;SDS011;10915;54.352;9.074;2022-09-25T00:47:35;8.53;;;4.73;;
21507;SDS011;10915;54.352;9.074;2022-09-25T00:53:02;6.70;;;4.00;;
21507;SDS011;10915;54.352;9.074;2022-09-25T00:55:32;8.67;;;4.27;;
21507;SDS011;10915;54.352;9.074;2022-09-25T00:58:00;9.33;;;4.50;;
21507;SDS011;10915;54.352;9.074;2022-09-25T01:00:27;6.90;;;4.00;;
21507;SDS011;10915;54.352;9.074;2022-09-25T01:02:54;8.17;;;4.40;;
21507;SDS011;10915;54.352;9.074;2022-09-25T01:05:22;8.07;;;4.17;;
21507;SDS011;10915;54.352;9.074;2022-09-25T01:07:52;8.33;;;4.33;;
21507;SDS011;10915;54.352;9.074;2022-09-25T01:10:21;15.87;;;4.73;;
21507;SDS011;10915;54.352;9.074;2022-09-25T01:12:47;8.30;;;4.67;;
21507;SDS011;10915;54.352;9.074;2022-09-25T01:15:15;8.13;;;5.00;;
21507;SDS011;10915;54.352;9.074;2022-09-25T01:21:05;11.50;;;5.50;;
21507;SDS011;10915;54.352;9.074;2022-09-25T01:24:17;10.83;;;5.43;;
21507;SDS011;10915;54.352;9.074;2022-09-25T01:30:14;11.87;;;5.77;;
21507;SDS011;10915;54.352;9.074;2022-09-25T01:37:57;11.30;;;5.93;;
21507;SDS011;10915;54.352;9.074;2022-09-25T01:40:28;11.93;;;5.70;;
21507;SDS011;10915;54.352;9.074;2022-09-25T01:43:06;13.03;;;6.20;;
21507;SDS011;10915;54.352;9.074;2022-09-25T01:45:45;11.80;;;6.07;;
21507;SDS011;10915;54.352;9.074;2022-09-25T01:48:19;10.30;;;5.87;;
21507;SDS011;10915;54.352;9.074;2022-09-25T01:50:54;13.23;;;6.60;;
21507;SDS011;10915;54.352;9.074;2022-09-25T01:53:31;18.37;;;7.17;;
21507;SDS011;10915;54.352;9.074;2022-09-25T01:56:07;13.37;;;7.13;;
21507;SDS011;10915;54.352;9.074;2022-09-25T01:58:42;11.53;;;6.90;;
21507;SDS011;10915;54.352;9.074;2022-09-25T02:01:28;13.90;;;7.20;;
21507;SDS011;10915;54.352;9.074;2022-09-25T02:04:01;18.13;;;6.60;;
21507;SDS011;10915;54.352;9.074;2022-09-25T02:06:32;9.37;;;6.33;;
21507;SDS011;10915;54.352;9.074;2022-09-25T02:09:04;11.00;;;6.70;;
21507;SDS011;10915;54.352;9.074;2022-09-25T02:11:38;13.90;;;7.30;;
21507;SDS011;10915;54.352;9.074;2022-09-25T02:14:22;13.03;;;7.30;;
21507;SDS011;10915;54.352;9.074;2022-09-25T02:16:53;11.60;;;6.97;;
21507;SDS011;10915;54.352;9.074;2022-09-25T02:19:22;15.93;;;7.70;;
21507;SDS011;10915;54.352;9.074;2022-09-25T02:22:16;12.47;;;6.97;;
21507;SDS011;10915;54.352;9.074;2022-09-25T02:27:21;14.67;;;7.60;;
21507;SDS011;10915;54.352;9.074;2022-09-25T02:29:48;10.90;;;6.70;;
21507;SDS011;10915;54.352;9.074;2022-09-25T02:32:16;12.33;;;7.10;;
21507;SDS011;10915;54.352;9.074;2022-09-25T02:34:44;10.80;;;6.77;;
21507;SDS011;10915;54.352;9.074;2022-09-25T02:37:14;15.80;;;7.53;;
21507;SDS011;10915;54.352;9.074;2022-09-25T02:39:41;11.97;;;7.57;;
21507;SDS011;10915;54.352;9.074;2022-09-25T02:42:25;13.50;;;7.20;;
21507;SDS011;10915;54.352;9.074;2022-09-25T02:56:13;18.87;;;8.23;;
21507;SDS011;10915;54.352;9.074;2022-09-25T02:58:45;14.97;;;8.97;;
21507;SDS011;10915;54.352;9.074;2022-09-25T03:01:19;13.27;;;8.47;;
21507;SDS011;10915;54.352;9.074;2022-09-25T03:03:48;11.97;;;7.90;;
21507;SDS011;10915;54.352;9.074;2022-09-25T03:06:18;10.07;;;6.97;;
21507;SDS011;10915;54.352;9.074;2022-09-25T03:08:46;8.20;;;7.10;;
21507;SDS011;10915;54.352;9.074;2022-09-25T03:11:17;12.97;;;6.73;;
21507;SDS011;10915;54.352;9.074;2022-09-25T03:13:45;12.03;;;6.80;;
21507;SDS011;10915;54.352;9.074;2022-09-25T03:16:36;11.97;;;7.00;;
21507;SDS011;10915;54.352;9.074;2022-09-25T03:19:17;10.70;;;7.83;;
21507;SDS011;10915;54.352;9.074;2022-09-25T03:21:46;22.37;;;10.30;;
21507;SDS011;10915;54.352;9.074;2022-09-25T03:24:13;14.13;;;9.80;;
21507;SDS011;10915;54.352;9.074;2022-09-25T03:26:39;11.67;;;8.60;;
21507;SDS011;10915;54.352;9.074;2022-09-25T03:29:06;16.93;;;10.57;;
21507;SDS011;10915;54.352;9.074;2022-09-25T03:31:32;19.30;;;10.93;;
21507;SDS011;10915;54.352;9.074;2022-09-25T03:33:58;18.30;;;11.03;;
21507;SDS011;10915;54.352;9.074;2022-09-25T03:36:25;18.50;;;11.97;;
21507;SDS011;10915;54.352;9.074;2022-09-25T03:38:53;21.10;;;13.27;;
21507;SDS011;10915;54.352;9.074;2022-09-25T03:41:24;20.80;;;13.80;;
21507;SDS011;10915;54.352;9.074;2022-09-25T03:43:52;20.50;;;13.27;;
21507;SDS011;10915;54.352;9.074;2022-09-25T03:46:21;24.07;;;14.63;;
21507;SDS011;10915;54.352;9.074;2022-09-25T03:48:49;18.33;;;13.87;;
21507;SDS011;10915;54.352;9.074;2022-09-25T03:51:16;15.83;;;13.30;;
21507;SDS011;10915;54.352;9.074;2022-09-25T03:53:43;17.10;;;11.57;;
21507;SDS011;10915;54.352;9.074;2022-09-25T03:56:11;19.87;;;13.17;;
21507;SDS011;10915;54.352;9.074;2022-09-25T03:58:38;19.10;;;13.93;;
21507;SDS011;10915;54.352;9.074;2022-09-25T04:01:04;16.87;;;11.80;;
21507;SDS011;10915;54.352;9.074;2022-09-25T04:03:31;17.37;;;12.03;;
21507;SDS011;10915;54.352;9.074;2022-09-25T04:05:58;17.67;;;12.70;;
21507;SDS011;10915;54.352;9.074;2022-09-25T04:08:26;15.47;;;11.37;;
21507;SDS011;10915;54.352;9.074;2022-09-25T04:10:52;21.97;;;14.63;;
21507;SDS011;10915;54.352;9.074;2022-09-25T04:13:20;20.03;;;14.63;;
21507;SDS011;10915;54.352;9.074;2022-09-25T04:15:46;15.53;;;12.87;;
21507;SDS011;10915;54.352;9.074;2022-09-25T04:18:12;21.40;;;14.40;;
21507;SDS011;10915;54.352;9.074;2022-09-25T04:20:38;20.17;;;14.30;;
21507;SDS011;10915;54.352;9.074;2022-09-25T04:23:04;17.60;;;13.00;;
21507;SDS011;10915;54.352;9.074;2022-09-25T04:25:30;18.17;;;13.10;;
21507;SDS011;10915;54.352;9.074;2022-09-25T04:27:56;18.97;;;11.97;;
21507;SDS011;10915;54.352;9.074;2022-09-25T04:30:22;16.10;;;12.83;;
21507;SDS011;10915;54.352;9.074;2022-09-25T04:32:50;21.50;;;13.10;;
21507;SDS011;10915;54.352;9.074;2022-09-25T04:35:34;16.43;;;12.87;;
21507;SDS011;10915;54.352;9.074;2022-09-25T04:38:00;17.17;;;13.43;;
21507;SDS011;10915;54.352;9.074;2022-09-25T04:40:26;21.13;;;14.00;;
21507;SDS011;10915;54.352;9.074;2022-09-25T04:42:56;19.97;;;13.53;;
21507;SDS011;10915;54.352;9.074;2022-09-25T04:45:26;20.67;;;14.53;;
21507;SDS011;10915;54.352;9.074;2022-09-25T04:47:54;23.23;;;15.93;;
21507;SDS011;10915;54.352;9.074;2022-09-25T04:50:21;24.93;;;16.07;;
21507;SDS011;10915;54.352;9.074;2022-09-25T04:52:47;24.90;;;17.03;;
21507;SDS011;10915;54.352;9.074;2022-09-25T04:55:15;24.47;;;18.73;;
21507;SDS011;10915;54.352;9.074;2022-09-25T04:57:44;26.37;;;18.47;;
21507;SDS011;10915;54.352;9.074;2022-09-25T05:00:16;25.43;;;18.80;;
21507;SDS011;10915;54.352;9.074;2022-09-25T05:02:43;28.93;;;19.60;;
21507;SDS011;10915;54.352;9.074;2022-09-25T05:05:09;25.60;;;18.40;;
21507;SDS011;10915;54.352;9.074;2022-09-25T05:07:35;23.90;;;18.40;;
21507;SDS011;10915;54.352;9.074;2022-09-25T05:10:02;23.73;;;16.60;;
21507;SDS011;10915;54.352;9.074;2022-09-25T05:12:28;19.40;;;15.83;;
21507;SDS011;10915;54.352;9.074;2022-09-25T05:14:54;18.77;;;15.40;;
21507;SDS011;10915;54.352;9.074;2022-09-25T05:17:20;18.53;;;14.87;;
21507;SDS011;10915;54.352;9.074;2022-09-25T05:19:45;22.63;;;16.70;;
21507;SDS011;10915;54.352;9.074;2022-09-25T05:22:11;19.50;;;15.90;;
21507;SDS011;10915;54.352;9.074;2022-09-25T05:24:36;18.97;;;15.53;;
21507;SDS011;10915;54.352;9.074;2022-09-25T05:27:03;19.10;;;15.17;;
21507;SDS011;10915;54.352;9.074;2022-09-25T05:29:29;22.40;;;15.97;;
21507;SDS011;10915;54.352;9.074;2022-09-25T05:31:55;21.63;;;15.70;;
21507;SDS011;10915;54.352;9.074;2022-09-25T05:34:21;20.80;;;15.73;;
21507;SDS011;10915;54.352;9.074;2022-09-25T05:36:46;28.70;;;17.83;;
21507;SDS011;10915;54.352;9.074;2022-09-25T05:39:12;31.43;;;19.17;;
21507;SDS011;10915;54.352;9.074;2022-09-25T05:41:37;21.20;;;16.50;;
21507;SDS011;10915;54.352;9.074;2022-09-25T05:44:03;22.17;;;16.60;;
21507;SDS011;10915;54.352;9.074;2022-09-25T05:46:36;23.13;;;17.30;;
21507;SDS011;10915;54.352;9.074;2022-09-25T05:49:03;19.80;;;15.97;;
21507;SDS011;10915;54.352;9.074;2022-09-25T05:51:29;18.47;;;15.03;;
21507;SDS011;10915;54.352;9.074;2022-09-25T05:53:55;19.67;;;17.03;;
21507;SDS011;10915;54.352;9.074;2022-09-25T05:56:20;21.67;;;16.43;;
21507;SDS011;10915;54.352;9.074;2022-09-25T05:58:48;20.80;;;16.40;;
21507;SDS011;10915;54.352;9.074;2022-09-25T06:01:15;20.37;;;15.97;;
21507;SDS011;10915;54.352;9.074;2022-09-25T06:03:41;20.20;;;16.07;;
21507;SDS011;10915;54.352;9.074;2022-09-25T06:06:06;21.27;;;17.37;;
21507;SDS011;10915;54.352;9.074;2022-09-25T06:08:32;21.37;;;17.23;;
21507;SDS011;10915;54.352;9.074;2022-09-25T06:10:59;22.73;;;17.97;;
21507;SDS011;10915;54.352;9.074;2022-09-25T06:13:26;22.97;;;16.93;;
21507;SDS011;10915;54.352;9.074;2022-09-25T06:15:53;24.37;;;16.83;;
21507;SDS011;10915;54.352;9.074;2022-09-25T06:18:19;25.30;;;18.13;;
21507;SDS011;10915;54.352;9.074;2022-09-25T06:20:47;22.13;;;17.43;;
21507;SDS011;10915;54.352;9.074;2022-09-25T06:23:13;23.93;;;18.57;;
21507;SDS011;10915;54.352;9.074;2022-09-25T06:25:39;22.80;;;17.63;;
21507;SDS011;10915;54.352;9.074;2022-09-25T06:28:05;20.87;;;15.83;;
21507;SDS011;10915;54.352;9.074;2022-09-25T06:30:32;23.83;;;17.43;;
21507;SDS011;10915;54.352;9.074;2022-09-25T06:33:00;20.27;;;14.80;;
21507;SDS011;10915;54.352;9.074;2022-09-25T06:35:44;18.73;;;14.33;;
21507;SDS011;10915;54.352;9.074;2022-09-25T06:38:11;17.10;;;13.17;;
21507;SDS011;10915;54.352;9.074;2022-09-25T06:40:38;16.90;;;14.30;;
21507;SDS011;10915;54.352;9.074;2022-09-25T06:43:04;18.67;;;13.80;;
21507;SDS011;10915;54.352;9.074;2022-09-25T06:45:32;17.83;;;14.60;;
21507;SDS011;10915;54.352;9.074;2022-09-25T06:48:08;16.60;;;13.80;;
21507;SDS011;10915;54.352;9.074;2022-09-25T06:53:10;18.23;;;14.10;;
21507;SDS011;10915;54.352;9.074;2022-09-25T06:55:36;16.10;;;12.50;;
21507;SDS011;10915;54.352;9.074;2022-09-25T06:58:03;15.07;;;13.47;;
21507;SDS011;10915;54.352;9.074;2022-09-25T07:00:30;14.43;;;11.57;;
21507;SDS011;10915;54.352;9.074;2022-09-25T07:02:56;13.27;;;10.93;;
21507;SDS011;10915;54.352;9.074;2022-09-25T07:05:41;13.80;;;11.10;;
21507;SDS011;10915;54.352;9.074;2022-09-25T07:08:08;12.33;;;11.03;;
21507;SDS011;10915;54.352;9.074;2022-09-25T07:10:34;10.70;;;9.53;;
21507;SDS011;10915;54.352;9.074;2022-09-25T07:13:00;11.73;;;10.00;;
21507;SDS011;10915;54.352;9.074;2022-09-25T07:15:26;11.27;;;9.97;;
21507;SDS011;10915;54.352;9.074;2022-09-25T07:17:51;10.90;;;8.67;;
21507;SDS011;10915;54.352;9.074;2022-09-25T07:20:17;12.27;;;8.90;;
21507;SDS011;10915;54.352;9.074;2022-09-25T07:22:43;11.90;;;8.90;;
21507;SDS011;10915;54.352;9.074;2022-09-25T07:25:09;12.73;;;10.47;;
21507;SDS011;10915;54.352;9.074;2022-09-25T07:27:35;10.97;;;9.80;;
21507;SDS011;10915;54.352;9.074;2022-09-25T07:30:01;12.77;;;9.27;;
21507;SDS011;10915;54.352;9.074;2022-09-25T07:32:27;12.60;;;9.50;;
21507;SDS011;10915;54.352;9.074;2022-09-25T07:34:53;13.57;;;10.60;;
21507;SDS011;10915;54.352;9.074;2022-09-25T07:37:19;11.00;;;9.90;;
21507;SDS011;10915;54.352;9.074;2022-09-25T07:39:44;14.23;;;10.37;;
21507;SDS011;10915;54.352;9.074;2022-09-25T07:42:10;12.03;;;10.70;;
21507;SDS011;10915;54.352;9.074;2022-09-25T07:44:36;12.37;;;10.77;;
21507;SDS011;10915;54.352;9.074;2022-09-25T07:47:02;12.97;;;10.93;;
21507;SDS011;10915;54.352;9.074;2022-09-25T07:49:28;16.07;;;10.80;;
21507;SDS011;10915;54.352;9.074;2022-09-25T07:51:55;12.73;;;10.80;;
21507;SDS011;10915;54.352;9.074;2022-09-25T07:54:20;12.23;;;9.67;;
21507;SDS011;10915;54.352;9.074;2022-09-25T07:56:46;11.73;;;10.53;;
21507;SDS011;10915;54.352;9.074;2022-09-25T07:59:11;12.10;;;9.87;;
21507;SDS011;10915;54.352;9.074;2022-09-25T08:01:37;14.50;;;10.83;;
21507;SDS011;10915;54.352;9.074;2022-09-25T08:04:03;10.13;;;8.97;;
21507;SDS011;10915;54.352;9.074;2022-09-25T08:06:28;12.23;;;9.50;;
21507;SDS011;10915;54.352;9.074;2022-09-25T08:08:57;11.00;;;9.20;;
21507;SDS011;10915;54.352;9.074;2022-09-25T08:11:23;12.70;;;9.70;;
21507;SDS011;10915;54.352;9.074;2022-09-25T08:13:49;10.33;;;8.27;;
21507;SDS011;10915;54.352;9.074;2022-09-25T08:16:16;9.57;;;7.90;;
21507;SDS011;10915;54.352;9.074;2022-09-25T08:18:44;12.60;;;7.87;;
21507;SDS011;10915;54.352;9.074;2022-09-25T08:21:11;10.37;;;7.70;;
21507;SDS011;10915;54.352;9.074;2022-09-25T08:23:38;8.07;;;6.80;;
21507;SDS011;10915;54.352;9.074;2022-09-25T08:26:08;8.57;;;5.60;;
21507;SDS011;10915;54.352;9.074;2022-09-25T08:28:34;11.23;;;6.20;;
21507;SDS011;10915;54.352;9.074;2022-09-25T08:31:00;8.10;;;5.27;;
21507;SDS011;10915;54.352;9.074;2022-09-25T08:33:28;8.13;;;4.50;;
21507;SDS011;10915;54.352;9.074;2022-09-25T08:35:58;7.60;;;4.70;;
21507;SDS011;10915;54.352;9.074;2022-09-25T08:38:26;10.93;;;3.67;;
21507;SDS011;10915;54.352;9.074;2022-09-25T08:43:41;6.80;;;2.80;;
21507;SDS011;10915;54.352;9.074;2022-09-25T08:46:17;9.13;;;3.07;;
21507;SDS011;10915;54.352;9.074;2022-09-25T08:49:07;11.17;;;2.93;;
21507;SDS011;10915;54.352;9.074;2022-09-25T08:51:36;9.33;;;2.33;;
21507;SDS011;10915;54.352;9.074;2022-09-25T08:54:05;6.30;;;2.70;;
21507;SDS011;10915;54.352;9.074;2022-09-25T08:56:55;6.77;;;2.33;;
21507;SDS011;10915;54.352;9.074;2022-09-25T08:59:37;10.67;;;2.70;;
21507;SDS011;10915;54.352;9.074;2022-09-25T09:02:23;4.37;;;1.47;;
21507;SDS011;10915;54.352;9.074;2022-09-25T09:05:26;11.37;;;1.90;;
21507;SDS011;10915;54.352;9.074;2022-09-25T09:11:00;10.53;;;2.00;;
21507;SDS011;10915;54.352;9.074;2022-09-25T09:13:41;7.80;;;1.67;;
21507;SDS011;10915;54.352;9.074;2022-09-25T09:19:02;7.27;;;2.10;;
21507;SDS011;10915;54.352;9.074;2022-09-25T09:24:28;5.10;;;1.50;;
21507;SDS011;10915;54.352;9.074;2022-09-25T09:35:42;9.13;;;1.47;;
21507;SDS011;10915;54.352;9.074;2022-09-25T09:41:58;5.60;;;1.23;;
21507;SDS011;10915;54.352;9.074;2022-09-25T09:47:41;11.17;;;1.93;;
21507;SDS011;10915;54.352;9.074;2022-09-25T09:52:57;5.20;;;1.20;;
21507;SDS011;10915;54.352;9.074;2022-09-25T09:55:37;11.87;;;2.63;;
21507;SDS011;10915;54.352;9.074;2022-09-25T09:58:16;5.87;;;1.37;;
21507;SDS011;10915;54.352;9.074;2022-09-25T10:00:54;6.87;;;1.53;;
21507;SDS011;10915;54.352;9.074;2022-09-25T10:03:24;7.13;;;1.60;;
21507;SDS011;10915;54.352;9.074;2022-09-25T10:05:57;5.00;;;1.60;;
21507;SDS011;10915;54.352;9.074;2022-09-25T10:08:28;4.67;;;0.90;;
21507;SDS011;10915;54.352;9.074;2022-09-25T10:11:17;6.47;;;1.40;;
21507;SDS011;10915;54.352;9.074;2022-09-25T10:13:45;2.07;;;0.67;;
21507;SDS011;10915;54.352;9.074;2022-09-25T10:16:20;5.37;;;1.00;;
21507;SDS011;10915;54.352;9.074;2022-09-25T10:21:42;6.03;;;1.20;;
21507;SDS011;10915;54.352;9.074;2022-09-25T10:30:15;4.53;;;0.97;;
21507;SDS011;10915;54.352;9.074;2022-09-25T10:35:42;8.03;;;2.00;;
21507;SDS011;10915;54.352;9.074;2022-09-25T10:41:18;4.03;;;1.17;;
21507;SDS011;10915;54.352;9.074;2022-09-25T10:43:55;4.90;;;1.20;;
21507;SDS011;10915;54.352;9.074;2022-09-25T10:49:11;4.47;;;1.10;;
21507;SDS011;10915;54.352;9.074;2022-09-25T10:52:07;6.33;;;1.70;;
21507;SDS011;10915;54.352;9.074;2022-09-25T10:54:35;6.43;;;1.47;;
21507;SDS011;10915;54.352;9.074;2022-09-25T10:57:02;3.63;;;0.90;;
21507;SDS011;10915;54.352;9.074;2022-09-25T10:59:49;6.50;;;1.40;;
21507;SDS011;10915;54.352;9.074;2022-09-25T11:02:23;4.63;;;1.03;;
21507;SDS011;10915;54.352;9.074;2022-09-25T11:05:02;5.30;;;0.83;;
21507;SDS011;10915;54.352;9.074;2022-09-25T11:07:29;4.50;;;0.93;;
21507;SDS011;10915;54.352;9.074;2022-09-25T11:09:56;6.00;;;0.80;;
21507;SDS011;10915;54.352;9.074;2022-09-25T11:12:23;5.03;;;1.50;;
21507;SDS011;10915;54.352;9.074;2022-09-25T11:15:03;7.27;;;1.10;;
21507;SDS011;10915;54.352;9.074;2022-09-25T11:20:37;5.13;;;0.90;;
21507;SDS011;10915;54.352;9.074;2022-09-25T11:26:11;3.10;;;0.60;;
21507;SDS011;10915;54.352;9.074;2022-09-25T11:28:56;2.77;;;0.60;;
21507;SDS011;10915;54.352;9.074;2022-09-25T11:31:45;4.60;;;0.80;;
21507;SDS011;10915;54.352;9.074;2022-09-25T11:46:45;1.60;;;0.50;;
21507;SDS011;10915;54.352;9.074;2022-09-25T11:49:29;4.20;;;1.30;;
21507;SDS011;10915;54.352;9.074;2022-09-25T12:00:26;5.00;;;0.57;;
21507;SDS011;10915;54.352;9.074;2022-09-25T12:06:16;4.40;;;0.90;;
21507;SDS011;10915;54.352;9.074;2022-09-25T12:17:46;1.90;;;0.60;;
21507;SDS011;10915;54.352;9.074;2022-09-25T12:21:05;3.27;;;1.03;;
21507;SDS011;10915;54.352;9.074;2022-09-25T12:23:51;4.17;;;0.70;;
21507;SDS011;10915;54.352;9.074;2022-09-25T12:26:24;3.70;;;0.60;;
21507;SDS011;10915;54.352;9.074;2022-09-25T12:32:02;3.07;;;0.40;;
21507;SDS011;10915;54.352;9.074;2022-09-25T12:37:19;4.80;;;1.57;;
21507;SDS011;10915;54.352;9.074;2022-09-25T12:39:54;3.63;;;0.90;;
21507;SDS011;10915;54.352;9.074;2022-09-25T12:45:02;3.87;;;0.80;;
21507;SDS011;10915;54.352;9.074;2022-09-25T12:51:21;6.47;;;0.93;;
21507;SDS011;10915;54.352;9.074;2022-09-25T12:54:10;4.37;;;1.10;;
21507;SDS011;10915;54.352;9.074;2022-09-25T12:56:39;4.53;;;1.20;;
21507;SDS011;10915;54.352;9.074;2022-09-25T12:59:20;3.43;;;0.80;;
21507;SDS011;10915;54.352;9.074;2022-09-25T13:01:52;4.27;;;0.93;;
21507;SDS011;10915;54.352;9.074;2022-09-25T13:07:26;6.40;;;0.80;;
21507;SDS011;10915;54.352;9.074;2022-09-25T13:09:57;5.90;;;1.20;;
21507;SDS011;10915;54.352;9.074;2022-09-25T13:12:32;6.63;;;1.10;;
21507;SDS011;10915;54.352;9.074;2022-09-25T13:15:06;3.40;;;0.70;;
21507;SDS011;10915;54.352;9.074;2022-09-25T13:17:38;4.47;;;0.83;;
21507;SDS011;10915;54.352;9.074;2022-09-25T13:23:03;3.83;;;0.93;;
21507;SDS011;10915;54.352;9.074;2022-09-25T13:28:13;4.07;;;0.87;;
21507;SDS011;10915;54.352;9.074;2022-09-25T13:30:55;6.73;;;0.90;;
21507;SDS011;10915;54.352;9.074;2022-09-25T13:33:23;1.83;;;0.77;;
21507;SDS011;10915;54.352;9.074;2022-09-25T13:36:00;9.77;;;1.20;;
21507;SDS011;10915;54.352;9.074;2022-09-25T13:38:32;6.73;;;1.17;;
21507;SDS011;10915;54.352;9.074;2022-09-25T13:41:27;6.97;;;1.00;;
21507;SDS011;10915;54.352;9.074;2022-09-25T13:49:49;9.80;;;1.57;;
21507;SDS011;10915;54.352;9.074;2022-09-25T14:00:26;5.40;;;1.80;;
21507;SDS011;10915;54.352;9.074;2022-09-25T14:03:35;8.50;;;1.50;;
21507;SDS011;10915;54.352;9.074;2022-09-25T14:06:09;8.67;;;2.10;;
21507;SDS011;10915;54.352;9.074;2022-09-25T14:08:41;3.80;;;0.77;;
21507;SDS011;10915;54.352;9.074;2022-09-25T14:11:08;5.50;;;1.20;;
21507;SDS011;10915;54.352;9.074;2022-09-25T14:13:36;4.83;;;1.07;;
21507;SDS011;10915;54.352;9.074;2022-09-25T14:16:07;4.30;;;1.07;;
21507;SDS011;10915;54.352;9.074;2022-09-25T14:18:42;1.93;;;0.73;;
21507;SDS011;10915;54.352;9.074;2022-09-25T14:21:10;6.07;;;0.83;;
21507;SDS011;10915;54.352;9.074;2022-09-25T14:23:49;6.67;;;1.20;;
21507;SDS011;10915;54.352;9.074;2022-09-25T14:26:18;5.13;;;1.17;;
21507;SDS011;10915;54.352;9.074;2022-09-25T14:28:46;5.27;;;0.83;;
21507;SDS011;10915;54.352;9.074;2022-09-25T14:34:06;5.03;;;0.90;;
21507;SDS011;10915;54.352;9.074;2022-09-25T14:39:56;5.80;;;1.30;;
21507;SDS011;10915;54.352;9.074;2022-09-25T14:45:48;2.87;;;0.90;;
21507;SDS011;10915;54.352;9.074;2022-09-25T14:48:40;9.13;;;1.50;;
21507;SDS011;10915;54.352;9.074;2022-09-25T14:51:11;3.73;;;1.13;;
21507;SDS011;10915;54.352;9.074;2022-09-25T14:53:48;7.57;;;1.20;;
21507;SDS011;10915;54.352;9.074;2022-09-25T14:56:18;4.37;;;0.60;;
21507;SDS011;10915;54.352;9.074;2022-09-25T14:58:55;4.50;;;0.83;;
21507;SDS011;10915;54.352;9.074;2022-09-25T15:01:29;3.70;;;0.60;;
21507;SDS011;10915;54.352;9.074;2022-09-25T15:04:02;4.03;;;0.80;;
21507;SDS011;10915;54.352;9.074;2022-09-25T15:06:31;5.97;;;1.00;;
21507;SDS011;10915;54.352;9.074;2022-09-25T15:09:16;4.43;;;1.00;;
21507;SDS011;10915;54.352;9.074;2022-09-25T15:12:14;3.70;;;0.90;;
21507;SDS011;10915;54.352;9.074;2022-09-25T15:14:56;5.20;;;1.30;;
21507;SDS011;10915;54.352;9.074;2022-09-25T15:17:28;5.53;;;1.10;;
21507;SDS011;10915;54.352;9.074;2022-09-25T15:19:56;8.93;;;1.70;;
21507;SDS011;10915;54.352;9.074;2022-09-25T15:22:30;5.27;;;0.97;;
21507;SDS011;10915;54.352;9.074;2022-09-25T15:24:59;4.77;;;1.83;;
21507;SDS011;10915;54.352;9.074;2022-09-25T15:27:27;3.40;;;0.80;;
21507;SDS011;10915;54.352;9.074;2022-09-25T15:29:54;2.93;;;0.77;;
21507;SDS011;10915;54.352;9.074;2022-09-25T15:32:22;5.27;;;1.03;;
21507;SDS011;10915;54.352;9.074;2022-09-25T15:37:40;3.77;;;1.00;;
21507;SDS011;10915;54.352;9.074;2022-09-25T15:40:13;4.80;;;1.10;;
21507;SDS011;10915;54.352;9.074;2022-09-25T15:42:42;2.00;;;0.43;;
21507;SDS011;10915;54.352;9.074;2022-09-25T15:48:32;4.27;;;0.83;;
21507;SDS011;10915;54.352;9.074;2022-09-25T15:51:01;10.03;;;1.27;;
21507;SDS011;10915;54.352;9.074;2022-09-25T15:53:37;3.97;;;0.60;;
21507;SDS011;10915;54.352;9.074;2022-09-25T15:58:47;7.73;;;1.27;;
21507;SDS011;10915;54.352;9.074;2022-09-25T16:01:19;3.20;;;0.97;;
21507;SDS011;10915;54.352;9.074;2022-09-25T16:04:07;5.57;;;1.07;;
21507;SDS011;10915;54.352;9.074;2022-09-25T16:06:55;4.07;;;0.60;;
21507;SDS011;10915;54.352;9.074;2022-09-25T16:09:23;3.43;;;0.80;;
21507;SDS011;10915;54.352;9.074;2022-09-25T16:12:09;4.67;;;0.90;;
21507;SDS011;10915;54.352;9.074;2022-09-25T16:14:51;3.07;;;0.90;;
21507;SDS011;10915;54.352;9.074;2022-09-25T16:17:37;7.47;;;0.90;;
21507;SDS011;10915;54.352;9.074;2022-09-25T16:20:06;5.57;;;0.83;;
21507;SDS011;10915;54.352;9.074;2022-09-25T16:22:53;2.13;;;0.73;;
21507;SDS011;10915;54.352;9.074;2022-09-25T16:27:49;4.97;;;1.30;;
21507;SDS011;10915;54.352;9.074;2022-09-25T16:30:20;4.23;;;0.97;;
21507;SDS011;10915;54.352;9.074;2022-09-25T16:32:49;3.07;;;0.60;;
21507;SDS011;10915;54.352;9.074;2022-09-25T16:35:25;2.67;;;0.70;;
21507;SDS011;10915;54.352;9.074;2022-09-25T16:37:56;5.13;;;1.10;;
21507;SDS011;10915;54.352;9.074;2022-09-25T16:40:28;4.37;;;0.97;;
21507;SDS011;10915;54.352;9.074;2022-09-25T16:43:02;3.50;;;1.00;;
21507;SDS011;10915;54.352;9.074;2022-09-25T16:45:30;3.33;;;0.70;;
21507;SDS011;10915;54.352;9.074;2022-09-25T16:47:58;5.67;;;1.40;;
21507;SDS011;10915;54.352;9.074;2022-09-25T16:50:27;5.10;;;0.83;;
21507;SDS011;10915;54.352;9.074;2022-09-25T16:52:56;3.23;;;0.70;;
21507;SDS011;10915;54.352;9.074;2022-09-25T16:55:25;5.00;;;1.40;;
21507;SDS011;10915;54.352;9.074;2022-09-25T16:57:53;4.83;;;1.03;;
21507;SDS011;10915;54.352;9.074;2022-09-25T17:00:23;4.27;;;1.10;;
21507;SDS011;10915;54.352;9.074;2022-09-25T17:02:51;8.10;;;1.83;;
21507;SDS011;10915;54.352;9.074;2022-09-25T17:05:24;5.10;;;1.10;;
21507;SDS011;10915;54.352;9.074;2022-09-25T17:07:56;5.37;;;1.20;;
21507;SDS011;10915;54.352;9.074;2022-09-25T17:10:25;2.67;;;1.00;;
21507;SDS011;10915;54.352;9.074;2022-09-25T17:12:57;6.47;;;1.30;;
21507;SDS011;10915;54.352;9.074;2022-09-25T17:15:30;5.07;;;1.10;;
21507;SDS011;10915;54.352;9.074;2022-09-25T17:17:58;5.73;;;1.17;;
21507;SDS011;10915;54.352;9.074;2022-09-25T17:20:26;3.40;;;1.30;;
21507;SDS011;10915;54.352;9.074;2022-09-25T17:22:55;4.93;;;0.93;;
21507;SDS011;10915;54.352;9.074;2022-09-25T17:25:43;3.43;;;0.87;;
21507;SDS011;10915;54.352;9.074;2022-09-25T17:28:27;5.00;;;1.10;;
21507;SDS011;10915;54.352;9.074;2022-09-25T17:30:53;3.57;;;0.83;;
21507;SDS011;10915;54.352;9.074;2022-09-25T17:33:20;5.53;;;1.33;;
21507;SDS011;10915;54.352;9.074;2022-09-25T17:35:57;3.00;;;0.83;;
21507;SDS011;10915;54.352;9.074;2022-09-25T17:38:25;6.67;;;1.23;;
21507;SDS011;10915;54.352;9.074;2022-09-25T17:40:51;6.17;;;1.67;;
21507;SDS011;10915;54.352;9.074;2022-09-25T17:43:20;6.93;;;1.70;;
21507;SDS011;10915;54.352;9.074;2022-09-25T17:45:47;6.37;;;1.70;;
21507;SDS011;10915;54.352;9.074;2022-09-25T17:48:15;4.03;;;1.53;;
21507;SDS011;10915;54.352;9.074;2022-09-25T17:50:47;5.23;;;2.03;;
21507;SDS011;10915;54.352;9.074;2022-09-25T17:53:18;6.87;;;2.00;;
21507;SDS011;10915;54.352;9.074;2022-09-25T17:55:46;8.30;;;2.10;;
21507;SDS011;10915;54.352;9.074;2022-09-25T17:58:13;5.00;;;1.90;;